aviador You're here:

YCAS Decoded Metar

in
Report Time2017-09-23 18:00:00
UTC Time2017-09-23 18:24:11
Flight Rules unknown UNKNOWN
Wind340° at 11 kt
W.Decomp.*RWY 28: 5.5 kt HW 9.5 kt RCW
W.Rank340° ranks 10
Current wind is above 340° avg. (7.0)
VisibilityN/A
Phenomena:N/A
Clouds:N/A
Expected CloudBase > 3,600 ft AGL from Temp-Dew spread
CeilingNone
Temp23°C
Dew Point14°C (57% RH)
AAT20.3°C
QNH1009 hPa
Raw Report
METAR YCAS 231800Z AUTO 34011KT //// // ////// 23/14 Q1009=

Extra information for YCAS:More info

Social comments